createdAt,value
2022-10-09T00:00:05.080Z,89.67
2022-10-09T00:15:05.212Z,91.05
2022-10-09T00:30:05.307Z,91.81
2022-10-09T00:45:05.411Z,89.62
2022-10-09T01:00:05.497Z,85.09
2022-10-09T01:15:06.878Z,83.23
2022-10-09T01:30:06.964Z,86.36
2022-10-09T01:45:07.097Z,81.21
2022-10-09T02:00:07.196Z,79.80
2022-10-09T02:15:07.334Z,79.25
2022-10-09T02:30:07.421Z,78.77
2022-10-09T02:45:08.018Z,78.77
2022-10-09T03:00:08.617Z,78.49
2022-10-09T03:15:08.732Z,79.15
2022-10-09T03:30:08.833Z,78.84
2022-10-09T03:45:09.465Z,79.39
2022-10-09T04:00:10.090Z,81.02
2022-10-09T04:15:10.187Z,82.29
2022-10-09T04:30:10.264Z,86.15
2022-10-09T04:45:10.988Z,89.54
2022-10-09T05:00:11.023Z,90.45
2022-10-09T05:15:11.613Z,90.02
2022-10-09T05:30:12.204Z,89.43
2022-10-09T05:45:12.337Z,84.23
2022-10-09T06:00:12.516Z,82.08
2022-10-09T06:15:13.057Z,85.08
2022-10-09T06:30:13.195Z,86.58
2022-10-09T06:45:13.474Z,84.81
2022-10-09T07:00:13.554Z,82.42
2022-10-09T07:15:14.178Z,77.39
2022-10-09T07:30:14.781Z,74.77
2022-10-09T07:45:14.888Z,78.30
2022-10-09T08:00:15.013Z,92.04
2022-10-09T08:15:15.116Z,99.66
2022-10-09T08:30:15.245Z,99.99
2022-10-09T08:45:15.405Z,99.16
2022-10-09T09:00:15.626Z,92.14
2022-10-09T09:15:15.683Z,85.76
2022-10-09T09:30:15.760Z,81.70
2022-10-09T09:45:15.898Z,79.41
2022-10-09T10:00:16.024Z,76.78
2022-10-09T10:15:16.123Z,76.30
2022-10-09T10:30:16.225Z,74.21
2022-10-09T10:45:16.298Z,70.53
2022-10-09T11:00:17.088Z,71.47
2022-10-09T11:15:17.391Z,68.85
2022-10-09T11:30:17.255Z,64.57
2022-10-09T11:45:17.893Z,67.21
2022-10-09T12:00:18.565Z,65.10
2022-10-09T12:15:18.615Z,64.40
2022-10-09T12:30:18.708Z,59.19
2022-10-09T12:45:20.249Z,60.57
2022-10-09T13:00:21.609Z,61.83
2022-10-09T13:15:22.101Z,57.79
2022-10-09T13:30:22.211Z,62.78
2022-10-09T13:45:23.784Z,60.87
2022-10-09T14:00:23.836Z,62.94
2022-10-09T14:15:25.669Z,65.15
2022-10-09T14:30:25.594Z,62.77
2022-10-09T14:45:25.920Z,61.53
2022-10-09T15:00:26.067Z,61.53
2022-10-09T15:15:30.305Z,62.73
2022-10-09T15:30:31.218Z,66.78
2022-10-09T15:45:31.805Z,72.01
2022-10-09T16:00:32.982Z,77.90
2022-10-09T16:15:32.845Z,81.95
2022-10-09T16:30:34.425Z,87.82
2022-10-09T16:45:34.548Z,93.33
2022-10-09T17:00:34.729Z,98.07
2022-10-09T17:15:35.412Z,99.99
2022-10-09T17:30:36.004Z,99.99
2022-10-09T17:45:39.137Z,99.99
2022-10-09T18:00:39.802Z,99.99
2022-10-09T18:15:39.788Z,99.99
2022-10-09T18:30:39.961Z,99.99
2022-10-09T18:45:39.998Z,99.62
2022-10-09T19:00:40.333Z,96.47
2022-10-09T19:15:40.314Z,95.27
2022-10-09T19:30:40.455Z,94.79
2022-10-09T19:45:41.904Z,93.29
2022-10-09T20:00:42.194Z,91.61
2022-10-09T20:15:42.203Z,92.96
2022-10-09T20:30:43.834Z,91.03
2022-10-09T20:45:43.580Z,90.04
2022-10-09T21:00:43.705Z,85.21
2022-10-09T21:15:43.859Z,83.26
2022-10-09T21:30:43.951Z,82.89
2022-10-09T21:45:44.080Z,81.23
2022-10-09T22:00:44.147Z,82.68
2022-10-09T22:15:48.841Z,83.65
2022-10-09T22:30:49.392Z,83.90
2022-10-09T22:45:49.560Z,82.65
2022-10-09T23:00:49.672Z,84.15
2022-10-09T23:15:50.176Z,82.49
2022-10-09T23:30:50.299Z,82.32
2022-10-09T23:45:50.478Z,79.85
